Time;durP1;ratioP1;P1;durP2;ratioP2;P2;SDS_P1;SDS_P2;PMS_P1;PMS_P2;Temp;Humidity;BMP_temperature;BMP_pressure;BME280_temperature;BME280_humidity;BME280_pressure;Samples;Min_cycle;Max_cycle;Signal;HPM_P1;HPM_P2
2022/10/08 00:00:07;;;;;;;0.40;0.40;;;;;;;3.92;100.00;101566.75;5013899;28;20393;-77
2022/10/08 00:02:33;;;;;;;0.40;0.40;;;;;;;3.84;100.00;101561.16;4988540;28;20100;-78
2022/10/08 00:04:58;;;;;;;0.40;0.40;;;;;;;3.65;100.00;101556.28;5018465;28;20029;-77
2022/10/08 00:07:24;;;;;;;0.40;0.40;;;;;;;3.59;100.00;101564.72;5010170;28;20045;-79
2022/10/08 00:09:49;;;;;;;0.40;0.40;;;;;;;3.49;100.00;101578.69;4987685;28;20045;-78
2022/10/08 00:12:15;;;;;;;0.40;0.40;;;;;;;3.39;100.00;101576.81;4986060;28;20034;-78
2022/10/08 00:14:41;;;;;;;0.40;0.40;;;;;;;3.45;100.00;101571.88;4990819;28;20045;-77
2022/10/08 00:17:07;;;;;;;0.40;0.40;;;;;;;3.47;100.00;101569.97;4988260;28;20430;-77
2022/10/08 00:19:32;;;;;;;0.40;0.40;;;;;;;3.40;100.00;101563.38;4983074;28;20083;-78
2022/10/08 00:21:58;;;;;;;0.50;0.50;;;;;;;3.29;100.00;101568.63;5010192;28;20029;-78
2022/10/08 00:24:23;;;;;;;0.40;0.40;;;;;;;3.25;100.00;101583.06;4996961;28;20099;-77
2022/10/08 00:26:51;;;;;;;0.40;0.40;;;;;;;3.16;100.00;101570.44;4998006;28;20033;-77
2022/10/08 00:29:19;;;;;;;0.40;0.40;;;;;;;3.17;100.00;101577.44;5007110;28;20041;-77
2022/10/08 00:31:46;;;;;;;0.40;0.40;;;;;;;3.17;100.00;101578.28;5003032;28;20132;-77
2022/10/08 00:34:17;;;;;;;0.45;0.45;;;;;;;3.21;100.00;101565.66;5025785;28;20227;-78
2022/10/08 00:36:43;;;;;;;0.40;0.40;;;;;;;3.24;100.00;101568.09;4999934;28;20126;-78
2022/10/08 00:39:14;;;;;;;0.40;0.40;;;;;;;3.35;100.00;101583.28;4986896;28;20061;-78
2022/10/08 00:41:43;;;;;;;0.40;0.40;;;;;;;3.25;100.00;101589.22;5004145;28;20158;-78
2022/10/08 00:44:42;;;;;;;0.40;0.40;;;;;;;3.18;100.00;101587.97;4978384;28;20041;-77
2022/10/08 00:47:15;;;;;;;0.40;0.40;;;;;;;3.13;100.00;101589.28;5021231;28;20037;-77
2022/10/08 00:49:42;;;;;;;0.40;0.40;;;;;;;3.03;100.00;101576.59;4995294;28;20072;-77
2022/10/08 00:52:08;;;;;;;0.40;0.40;;;;;;;3.07;100.00;101591.41;4995937;28;20041;-77
2022/10/08 00:54:35;;;;;;;0.40;0.40;;;;;;;2.95;100.00;101586.91;5007024;28;20029;-77
2022/10/08 00:57:00;;;;;;;0.40;0.40;;;;;;;2.98;100.00;101589.34;5021006;28;20038;-77
2022/10/08 00:59:27;;;;;;;0.40;0.40;;;;;;;3.06;100.00;101592.34;5031927;28;20045;-77
2022/10/08 01:01:53;;;;;;;0.40;0.40;;;;;;;3.14;100.00;101591.81;4997895;28;20037;-77
2022/10/08 01:04:19;;;;;;;0.40;0.40;;;;;;;3.21;100.00;101590.41;5016715;28;20502;-77
2022/10/08 01:06:49;;;;;;;0.40;0.40;;;;;;;3.40;100.00;101592.63;4982651;28;20029;-77
2022/10/08 01:09:18;;;;;;;0.40;0.40;;;;;;;3.46;100.00;101586.84;5020571;28;20029;-77
2022/10/08 01:11:59;;;;;;;0.40;0.40;;;;;;;3.53;100.00;101588.13;5008075;28;20159;-78
2022/10/08 01:14:44;;;;;;;0.40;0.40;;;;;;;3.67;100.00;101597.78;5004146;28;20037;-77
2022/10/08 01:17:18;;;;;;;0.40;0.40;;;;;;;3.87;100.00;101599.00;5001743;28;20041;-78
2022/10/08 01:20:04;;;;;;;0.40;0.40;;;;;;;4.11;100.00;101611.47;5002494;28;20052;-77
2022/10/08 01:22:40;;;;;;;0.40;0.40;;;;;;;4.37;100.00;101599.75;5018537;28;20463;-77
2022/10/08 01:25:32;;;;;;;0.40;0.40;;;;;;;4.58;100.00;101607.94;5019673;28;20037;-77
2022/10/08 01:28:10;;;;;;;0.40;0.40;;;;;;;4.66;100.00;101594.03;5006131;28;20060;-77
2022/10/08 01:30:40;;;;;;;0.40;0.40;;;;;;;4.91;100.00;101624.13;5007686;28;20027;-76
2022/10/08 01:33:11;;;;;;;0.40;0.40;;;;;;;5.01;100.00;101617.97;5019147;28;20021;-78
2022/10/08 01:35:43;;;;;;;0.40;0.40;;;;;;;5.07;100.00;101624.63;4988625;28;20481;-77
2022/10/08 01:38:12;;;;;;;0.40;0.40;;;;;;;5.05;100.00;101627.44;5015218;28;20036;-77
2022/10/08 01:40:39;;;;;;;0.47;0.47;;;;;;;5.05;100.00;101626.56;5019345;28;22326;-77
2022/10/08 01:43:07;;;;;;;0.40;0.40;;;;;;;5.20;100.00;101624.53;4999086;28;20533;-77
2022/10/08 01:45:39;;;;;;;0.40;0.40;;;;;;;5.35;100.00;101635.81;4978091;28;20045;-78
2022/10/08 01:48:08;;;;;;;0.40;0.40;;;;;;;5.46;100.00;101630.50;5015686;28;20417;-77
2022/10/08 01:50:37;;;;;;;0.45;0.45;;;;;;;5.63;100.00;101637.13;4995012;28;20026;-77
2022/10/08 01:53:08;;;;;;;0.40;0.40;;;;;;;5.77;100.00;101636.03;5017712;28;20257;-76
2022/10/08 01:55:37;;;;;;;0.40;0.40;;;;;;;5.93;100.00;101628.50;5007327;28;20091;-78
2022/10/08 01:58:08;;;;;;;0.40;0.40;;;;;;;6.06;100.00;101628.38;5003177;28;20128;-77
2022/10/08 02:00:34;;;;;;;0.40;0.40;;;;;;;6.18;100.00;101632.72;5013320;28;20645;-77
2022/10/08 02:03:00;;;;;;;0.32;0.32;;;;;;;6.25;100.00;101639.25;4992776;28;20409;-77
2022/10/08 02:05:30;;;;;;;0.40;0.40;;;;;;;6.36;100.00;101655.25;5011904;28;21683;-76
2022/10/08 02:07:56;;;;;;;0.30;0.30;;;;;;;6.45;100.00;101650.94;5005027;28;20029;-77
2022/10/08 02:10:23;;;;;;;0.40;0.40;;;;;;;6.56;100.00;101658.06;4981570;28;20037;-77
2022/10/08 02:12:49;;;;;;;0.40;0.40;;;;;;;6.62;100.00;101652.25;5004364;28;20364;-78
2022/10/08 02:15:18;;;;;;;0.32;0.32;;;;;;;6.73;100.00;101643.31;4988970;28;20032;-78
2022/10/08 02:17:56;;;;;;;0.40;0.40;;;;;;;6.74;100.00;101631.66;5016939;28;20035;-77
2022/10/08 02:20:31;;;;;;;0.40;0.40;;;;;;;6.67;100.00;101627.78;5000790;28;20542;-76
2022/10/08 02:23:23;;;;;;;0.30;0.30;;;;;;;6.64;100.00;101622.69;5020430;28;20040;-77
2022/10/08 02:25:52;;;;;;;0.32;0.32;;;;;;;6.58;100.00;101622.25;5003875;28;20030;-77
2022/10/08 02:28:20;;;;;;;0.35;0.35;;;;;;;6.60;100.00;101633.66;5008859;28;20379;-77
2022/10/08 02:30:59;;;;;;;0.40;0.40;;;;;;;6.50;100.00;101627.38;5006761;28;20459;-76
2022/10/08 02:33:31;;;;;;;0.40;0.40;;;;;;;6.31;100.00;101619.22;5002854;28;20025;-77
2022/10/08 02:35:58;;;;;;;0.40;0.40;;;;;;;6.22;100.00;101622.63;5015557;28;20037;-76
2022/10/08 02:38:31;;;;;;;0.40;0.40;;;;;;;6.05;100.00;101632.03;5004275;28;20036;-77
2022/10/08 02:40:59;;;;;;;0.40;0.40;;;;;;;5.82;100.00;101641.84;5028131;28;20625;-77
2022/10/08 02:43:28;;;;;;;3.33;3.13;;;;;;;5.57;100.00;101643.81;5027805;28;20030;-77
2022/10/08 02:46:08;;;;;;;0.43;0.43;;;;;;;5.38;100.00;101644.41;5027884;28;20025;-77
2022/10/08 02:48:35;;;;;;;0.40;0.40;;;;;;;5.37;100.00;101637.41;4994916;28;20029;-77
2022/10/08 02:51:09;;;;;;;0.40;0.40;;;;;;;5.46;100.00;101642.00;5030276;28;20037;-77
2022/10/08 02:53:36;;;;;;;0.40;0.40;;;;;;;5.56;100.00;101628.78;5027083;28;20037;-77
2022/10/08 02:56:08;;;;;;;0.38;0.38;;;;;;;5.61;100.00;101626.63;4991384;28;20041;-77
2022/10/08 02:58:34;;;;;;;0.30;0.30;;;;;;;5.51;100.00;101620.31;5004794;28;20061;-77
2022/10/08 03:01:09;;;;;;;0.43;0.43;;;;;;;5.47;100.00;101621.50;5024665;28;20064;-78
2022/10/08 03:03:37;;;;;;;1.60;1.55;;;;;;;5.43;100.00;101620.06;5010357;28;20538;-77
2022/10/08 03:06:06;;;;;;;0.30;0.30;;;;;;;5.35;100.00;101620.66;4998899;28;20029;-77
2022/10/08 03:08:34;;;;;;;0.43;0.43;;;;;;;5.23;100.00;101621.63;5001611;28;20363;-77
2022/10/08 03:11:00;;;;;;;0.40;0.40;;;;;;;5.25;100.00;101636.53;5003223;28;20034;-77
2022/10/08 03:13:26;;;;;;;0.40;0.40;;;;;;;5.22;100.00;101642.09;5022076;28;20406;-77
2022/10/08 03:15:52;;;;;;;0.40;0.40;;;;;;;5.25;100.00;101635.69;4996369;28;20025;-77
2022/10/08 03:18:19;;;;;;;0.40;0.40;;;;;;;5.22;100.00;101631.44;4995345;28;20124;-77
2022/10/08 03:20:49;;;;;;;0.40;0.40;;;;;;;5.32;100.00;101638.72;4988754;28;20091;-76
2022/10/08 03:23:17;;;;;;;0.40;0.40;;;;;;;5.34;100.00;101632.28;5024931;28;20025;-77
2022/10/08 03:25:42;;;;;;;0.40;0.40;;;;;;;5.54;100.00;101638.72;5028555;28;20072;-77
2022/10/08 03:28:08;;;;;;;0.40;0.40;;;;;;;5.67;100.00;101644.78;5008949;28;20469;-78
2022/10/08 03:30:34;;;;;;;0.40;0.40;;;;;;;5.73;100.00;101643.44;4990563;28;20038;-77
2022/10/08 03:32:59;;;;;;;0.40;0.40;;;;;;;5.82;100.00;101657.88;5007907;28;20036;-78
2022/10/08 03:35:25;;;;;;;0.40;0.40;;;;;;;5.83;100.00;101646.25;5025220;28;20029;-78
2022/10/08 03:37:52;;;;;;;0.40;0.40;;;;;;;5.72;100.00;101642.59;5002819;28;20025;-78
2022/10/08 03:40:19;;;;;;;0.40;0.40;;;;;;;5.66;100.00;101650.22;5018047;28;20215;-78
2022/10/08 03:42:45;;;;;;;1.35;1.35;;;;;;;5.46;100.00;101646.50;5015631;28;20041;-77
2022/10/08 03:45:10;;;;;;;0.40;0.40;;;;;;;5.21;100.00;101643.09;5007752;28;20029;-77
2022/10/08 03:47:36;;;;;;;0.45;0.45;;;;;;;5.10;100.00;101636.88;4990089;28;20048;-77
2022/10/08 03:50:02;;;;;;;0.40;0.40;;;;;;;5.07;100.00;101652.13;5019314;28;20045;-78
2022/10/08 03:52:29;;;;;;;0.40;0.40;;;;;;;5.07;100.00;101646.78;4994123;28;20029;-79
2022/10/08 03:54:55;;;;;;;0.40;0.40;;;;;;;5.10;100.00;101642.19;5007135;28;20128;-78
2022/10/08 03:57:23;;;;;;;0.30;0.30;;;;;;;5.16;100.00;101649.72;4998301;28;20615;-79
2022/10/08 03:59:48;;;;;;;0.40;0.40;;;;;;;5.20;100.00;101649.38;5002887;28;20041;-77
2022/10/08 04:02:14;;;;;;;0.40;0.40;;;;;;;5.27;100.00;101653.25;4985938;28;20103;-79
2022/10/08 04:04:40;;;;;;;0.40;0.40;;;;;;;5.32;100.00;101646.69;5000790;28;20030;-77
2022/10/08 04:07:06;;;;;;;0.45;0.45;;;;;;;5.42;100.00;101656.53;4986643;28;20175;-77
2022/10/08 04:09:33;;;;;;;0.30;0.30;;;;;;;5.42;100.00;101648.53;4995709;28;20363;-77
2022/10/08 04:11:59;;;;;;;0.40;0.40;;;;;;;5.44;100.00;101662.59;5017719;28;20581;-78
2022/10/08 04:14:25;;;;;;;0.40;0.40;;;;;;;5.37;100.00;101652.53;5018123;28;20128;-77
2022/10/08 04:16:53;;;;;;;0.47;0.47;;;;;;;5.32;100.00;101650.25;5021175;28;20087;-77
2022/10/08 04:19:18;;;;;;;0.40;0.40;;;;;;;5.27;100.00;101658.59;5025438;28;20057;-79
2022/10/08 04:21:44;;;;;;;0.40;0.40;;;;;;;5.16;100.00;101658.59;5018662;28;20076;-78
2022/10/08 04:24:09;;;;;;;0.30;0.30;;;;;;;5.07;100.00;101656.63;5000643;28;20068;-77
2022/10/08 04:26:35;;;;;;;0.40;0.40;;;;;;;5.04;100.00;101663.03;4999015;28;20037;-78
2022/10/08 04:29:04;;;;;;;0.40;0.40;;;;;;;5.11;100.00;101652.75;4994078;28;20033;-78
2022/10/08 04:31:29;;;;;;;0.50;0.50;;;;;;;5.19;100.00;101671.69;5023353;28;20076;-77
2022/10/08 04:33:55;;;;;;;0.40;0.40;;;;;;;5.11;100.00;101649.22;4992742;28;20069;-77
2022/10/08 04:36:23;;;;;;;0.40;0.40;;;;;;;5.17;100.00;101667.44;5007828;28;20024;-77
2022/10/08 04:38:49;;;;;;;0.40;0.40;;;;;;;5.09;100.00;101662.69;5026190;28;20045;-76
2022/10/08 04:41:21;;;;;;;0.30;0.30;;;;;;;5.13;100.00;101661.47;5001743;28;20099;-76
2022/10/08 04:43:46;;;;;;;0.40;0.40;;;;;;;5.32;100.00;101668.91;5008154;28;20037;-76
2022/10/08 04:46:15;;;;;;;0.40;0.40;;;;;;;5.48;100.00;101663.22;5000569;28;20017;-77
2022/10/08 04:48:48;;;;;;;0.40;0.40;;;;;;;5.55;100.00;101663.59;5018630;28;20481;-76
2022/10/08 04:51:14;;;;;;;0.40;0.40;;;;;;;5.47;100.00;101669.50;5022406;28;20075;-77
2022/10/08 04:53:41;;;;;;;0.40;0.40;;;;;;;5.30;100.00;101668.19;4993250;28;20037;-77
2022/10/08 04:56:14;;;;;;;0.40;0.40;;;;;;;5.17;100.00;101667.44;5003215;28;20138;-77
2022/10/08 04:58:40;;;;;;;1.42;1.42;;;;;;;5.00;100.00;101671.38;5019181;28;20025;-76
2022/10/08 05:01:08;;;;;;;0.40;0.40;;;;;;;4.85;100.00;101679.59;4977379;28;20044;-76
2022/10/08 05:03:38;;;;;;;0.40;0.40;;;;;;;4.66;100.00;101683.72;5015724;28;20040;-78
2022/10/08 05:06:05;;;;;;;0.40;0.40;;;;;;;4.50;100.00;101673.38;4985044;28;20033;-76
2022/10/08 05:08:31;;;;;;;0.40;0.40;;;;;;;4.31;100.00;101671.22;4980485;28;20033;-77
2022/10/08 05:10:57;;;;;;;0.40;0.40;;;;;;;4.12;100.00;101669.06;4998755;28;20025;-76
2022/10/08 05:13:23;;;;;;;0.40;0.40;;;;;;;4.01;100.00;101677.81;5002250;28;20044;-76
2022/10/08 05:15:48;;;;;;;0.40;0.40;;;;;;;3.92;100.00;101690.00;5008411;28;20068;-76
2022/10/08 05:18:14;;;;;;;0.40;0.40;;;;;;;3.82;100.00;101682.78;4998198;28;20061;-77
2022/10/08 05:20:40;;;;;;;0.47;0.47;;;;;;;3.71;100.00;101687.03;5021382;28;20027;-76
2022/10/08 05:23:05;;;;;;;0.40;0.40;;;;;;;3.61;100.00;101695.78;5022026;28;20474;-76
2022/10/08 05:25:33;;;;;;;0.50;0.50;;;;;;;3.49;100.00;101687.72;5022093;28;20037;-77
2022/10/08 05:27:58;;;;;;;0.47;0.47;;;;;;;3.62;100.00;101692.16;5008534;28;20041;-76
2022/10/08 05:30:24;;;;;;;0.50;0.50;;;;;;;3.71;100.00;101688.84;5005098;28;20034;-77
2022/10/08 05:32:49;;;;;;;0.40;0.40;;;;;;;3.67;100.00;101698.00;4986918;28;20041;-76
2022/10/08 05:35:15;;;;;;;0.40;0.40;;;;;;;3.58;100.00;101685.34;5020935;28;20042;-76
2022/10/08 05:37:41;;;;;;;0.40;0.40;;;;;;;3.53;100.00;101691.84;5023353;28;20091;-77
2022/10/08 05:40:07;;;;;;;0.50;0.50;;;;;;;3.56;100.00;101696.09;5016839;28;20031;-77
2022/10/08 05:42:32;;;;;;;0.40;0.40;;;;;;;3.56;100.00;101697.91;5018019;28;20037;-78
2022/10/08 05:44:58;;;;;;;0.40;0.40;;;;;;;3.56;100.00;101703.22;5022103;28;20045;-76
2022/10/08 05:47:23;;;;;;;0.40;0.40;;;;;;;3.44;100.00;101689.84;5007111;28;20120;-77
2022/10/08 05:49:49;;;;;;;0.40;0.40;;;;;;;3.37;100.00;101691.22;4988196;28;20041;-77
2022/10/08 05:52:15;;;;;;;0.40;0.40;;;;;;;3.24;100.00;101696.50;5007594;28;20405;-77
2022/10/08 05:54:40;;;;;;;0.40;0.40;;;;;;;3.19;100.00;101695.13;4988851;28;20037;-77
2022/10/08 05:57:06;;;;;;;0.40;0.40;;;;;;;3.09;100.00;101700.22;4988278;28;20037;-76
2022/10/08 05:59:32;;;;;;;0.43;0.43;;;;;;;2.98;100.00;101681.50;4983344;28;20072;-76
2022/10/08 06:01:57;;;;;;;0.43;0.43;;;;;;;2.94;100.00;101686.19;4988738;28;20041;-77
2022/10/08 06:04:25;;;;;;;0.40;0.40;;;;;;;3.01;100.00;101682.13;4986813;28;20041;-76
2022/10/08 06:06:51;;;;;;;0.40;0.40;;;;;;;2.94;100.00;101695.94;5007556;28;20443;-76
2022/10/08 06:09:18;;;;;;;0.40;0.40;;;;;;;2.76;100.00;101677.63;5010275;28;21201;-77
2022/10/08 06:11:45;;;;;;;0.40;0.40;;;;;;;2.86;100.00;101689.34;5009852;28;20029;-76
2022/10/08 06:14:12;;;;;;;0.40;0.40;;;;;;;2.94;100.00;101701.25;5010531;28;20120;-76
2022/10/08 06:16:38;;;;;;;0.40;0.40;;;;;;;2.89;100.00;101701.56;4983069;28;20037;-76
2022/10/08 06:19:04;;;;;;;0.40;0.40;;;;;;;2.76;100.00;101701.53;4984223;28;20042;-76
2022/10/08 06:21:31;;;;;;;0.40;0.40;;;;;;;2.71;100.00;101711.63;5005952;28;20044;-76
2022/10/08 06:23:58;;;;;;;0.40;0.40;;;;;;;2.65;100.00;101714.69;5022379;28;20026;-76
2022/10/08 06:26:26;;;;;;;0.43;0.43;;;;;;;2.69;100.00;101715.31;5015943;28;20040;-76
2022/10/08 06:28:53;;;;;;;0.40;0.40;;;;;;;2.77;100.00;101721.81;4986556;28;20355;-77
2022/10/08 06:31:18;;;;;;;0.50;0.50;;;;;;;2.77;100.00;101720.97;5018254;28;20034;-77
2022/10/08 06:33:44;;;;;;;0.40;0.40;;;;;;;2.77;100.00;101718.31;5023797;28;20467;-77
2022/10/08 06:36:18;;;;;;;0.50;0.50;;;;;;;2.76;100.00;101727.25;4994966;28;20032;-77
2022/10/08 06:38:52;;;;;;;0.40;0.40;;;;;;;2.73;100.00;101728.31;4994232;28;20021;-76
2022/10/08 06:41:18;;;;;;;0.50;0.50;;;;;;;2.73;100.00;101719.50;5029196;28;20487;-77
2022/10/08 06:43:44;;;;;;;0.40;0.40;;;;;;;2.76;100.00;101732.56;5030068;28;20388;-78
2022/10/08 06:46:09;;;;;;;0.40;0.40;;;;;;;2.76;100.00;101730.75;5027518;28;20080;-77
2022/10/08 06:48:35;;;;;;;0.40;0.40;;;;;;;2.76;100.00;101732.56;5011476;28;21585;-77
2022/10/08 06:51:03;;;;;;;0.40;0.40;;;;;;;2.81;100.00;101735.78;5009647;28;20044;-77
2022/10/08 06:53:29;;;;;;;0.40;0.40;;;;;;;2.88;100.00;101737.03;5007884;28;20033;-77
2022/10/08 06:56:00;;;;;;;0.40;0.40;;;;;;;2.89;100.00;101730.78;5001317;28;20057;-76
2022/10/08 06:58:26;;;;;;;0.40;0.40;;;;;;;2.92;100.00;101732.41;5023729;28;20029;-76
2022/10/08 07:01:09;;;;;;;0.40;0.40;;;;;;;2.95;100.00;101732.19;5023794;28;20040;-77
2022/10/08 07:03:35;;;;;;;0.40;0.40;;;;;;;2.99;100.00;101742.50;5022697;28;20537;-77
2022/10/08 07:06:10;;;;;;;0.40;0.40;;;;;;;3.12;100.00;101744.34;5003140;28;20037;-77
2022/10/08 07:08:36;;;;;;;0.40;0.40;;;;;;;3.25;100.00;101743.38;5006285;28;20033;-77
2022/10/08 07:11:16;;;;;;;0.40;0.40;;;;;;;3.30;100.00;101729.78;5027545;28;20035;-77
2022/10/08 07:13:42;;;;;;;0.50;0.50;;;;;;;3.45;100.00;101741.19;5002508;28;20484;-77
2022/10/08 07:16:13;;;;;;;0.40;0.40;;;;;;;3.54;100.00;101743.22;5011930;28;20095;-77
2022/10/08 07:18:40;;;;;;;0.40;0.40;;;;;;;3.56;100.00;101738.63;5001850;28;20025;-77
2022/10/08 07:21:07;;;;;;;0.40;0.40;;;;;;;3.74;100.00;101739.19;5013519;28;20067;-77
2022/10/08 07:23:33;;;;;;;0.40;0.40;;;;;;;4.17;100.00;101746.75;4985325;28;20029;-77
2022/10/08 07:26:01;;;;;;;0.40;0.40;;;;;;;4.66;100.00;101751.22;5010302;28;20056;-77
2022/10/08 07:28:29;;;;;;;0.50;0.50;;;;;;;5.15;100.00;101760.84;5018372;28;20064;-76
2022/10/08 07:30:55;;;;;;;0.40;0.40;;;;;;;5.38;100.00;101756.44;5009795;28;20025;-77
2022/10/08 07:33:20;;;;;;;0.40;0.40;;;;;;;5.43;100.00;101759.59;4992919;28;20446;-77
2022/10/08 07:35:47;;;;;;;0.40;0.40;;;;;;;5.39;100.00;101754.63;5021826;28;20067;-78
2022/10/08 07:38:17;;;;;;;0.40;0.40;;;;;;;5.46;100.00;101766.53;4987477;28;20118;-77
2022/10/08 07:40:44;;;;;;;0.50;0.50;;;;;;;5.71;100.00;101763.63;5028540;28;20065;-76
2022/10/08 07:43:10;;;;;;;0.40;0.40;;;;;;;6.24;100.00;101776.41;5009730;28;21146;-77
2022/10/08 07:45:36;;;;;;;0.40;0.40;;;;;;;6.66;100.00;101781.94;5026444;28;20033;-77
2022/10/08 07:48:43;;;;;;;0.40;0.40;;;;;;;6.85;100.00;101781.28;4994355;28;20063;-78
2022/10/08 07:51:14;;;;;;;0.40;0.40;;;;;;;6.92;100.00;101779.81;5006201;28;20064;-78
2022/10/08 07:53:41;;;;;;;0.40;0.40;;;;;;;7.05;100.00;101788.50;5019071;28;20029;-78
2022/10/08 07:56:08;;;;;;;0.40;0.40;;;;;;;7.05;100.00;101769.78;5003188;28;20036;-79
2022/10/08 07:58:33;;;;;;;0.40;0.40;;;;;;;7.35;100.00;101788.75;5009708;28;20164;-77
2022/10/08 08:01:02;;;;;;;0.40;0.40;;;;;;;7.62;100.00;101782.84;4993763;28;20448;-78
2022/10/08 08:03:28;;;;;;;0.50;0.50;;;;;;;7.79;100.00;101787.63;5016194;28;20072;-77
2022/10/08 08:06:02;;;;;;;0.40;0.40;;;;;;;7.92;100.00;101792.78;5011684;28;20127;-78
2022/10/08 08:08:28;;;;;;;0.40;0.40;;;;;;;7.87;100.00;101779.78;5026114;28;20482;-77
2022/10/08 08:10:58;;;;;;;0.50;0.50;;;;;;;7.94;100.00;101793.50;5008070;28;20116;-77
2022/10/08 08:13:24;;;;;;;0.47;0.47;;;;;;;7.90;100.00;101800.94;5018211;28;20594;-79
2022/10/08 08:16:05;;;;;;;0.50;0.50;;;;;;;7.87;100.00;101798.53;5029836;28;20108;-77
2022/10/08 08:18:32;;;;;;;0.40;0.40;;;;;;;7.98;100.00;101804.78;5010542;28;20099;-77
2022/10/08 08:21:01;;;;;;;0.40;0.40;;;;;;;8.02;100.00;101804.38;5006237;28;20476;-77
2022/10/08 08:23:31;;;;;;;0.40;0.40;;;;;;;8.33;100.00;101802.53;5027948;28;20128;-77
2022/10/08 08:26:12;;;;;;;0.60;0.60;;;;;;;10.76;100.00;101802.25;5020029;28;20042;-77
2022/10/08 08:28:38;;;;;;;0.70;0.70;;;;;;;12.45;100.00;101811.13;4994152;28;20073;-78
2022/10/08 08:31:15;;;;;;;0.60;0.60;;;;;;;13.83;99.76;101806.94;5027462;28;20053;-77
2022/10/08 08:33:42;;;;;;;0.50;0.50;;;;;;;14.66;94.16;101800.25;4996143;28;20091;-77
2022/10/08 08:36:08;;;;;;;0.60;0.60;;;;;;;15.36;90.64;101815.53;4997010;28;20055;-78
2022/10/08 08:38:35;;;;;;;0.60;0.60;;;;;;;15.81;87.97;101821.94;5025214;28;20037;-77
2022/10/08 08:44:43;;;;;;;0.50;0.50;;;;;;;15.44;90.38;101825.47;5011191;23;20108;-77
2022/10/08 08:47:27;;;;;;;0.70;0.70;;;;;;;16.46;93.03;101823.94;5020403;28;20065;-77
2022/10/08 08:49:57;;;;;;;0.68;0.68;;;;;;;17.41;87.25;101827.56;4999210;28;20467;-77
2022/10/08 08:52:32;;;;;;;0.60;0.60;;;;;;;16.02;88.93;101810.38;4991459;28;20041;-78
2022/10/08 08:54:59;;;;;;;0.85;0.85;;;;;;;15.42;91.56;101836.47;4990773;28;20065;-78
2022/10/08 08:57:30;;;;;;;0.60;0.60;;;;;;;14.87;96.10;101834.81;5005961;28;20034;-78
2022/10/08 09:00:01;;;;;;;0.40;0.40;;;;;;;15.33;98.17;101841.13;5000878;28;20037;-77
2022/10/08 09:02:37;;;;;;;0.40;0.40;;;;;;;14.23;100.00;101834.88;5031688;28;20483;-79
2022/10/08 09:05:07;;;;;;;0.40;0.40;;;;;;;13.51;100.00;101838.38;5007013;28;20021;-76
2022/10/08 09:07:42;;;;;;;0.40;0.40;;;;;;;13.08;100.00;101840.34;4986809;28;20468;-76
2022/10/08 09:10:13;;;;;;;0.40;0.40;;;;;;;12.84;100.00;101832.19;4998476;28;20037;-77
2022/10/08 09:12:50;;;;;;;0.40;0.40;;;;;;;12.59;100.00;101831.25;4984298;28;20462;-76
2022/10/08 09:15:22;;;;;;;0.47;0.47;;;;;;;12.40;100.00;101803.50;5012543;28;20042;-77
2022/10/08 09:17:50;;;;;;;1.65;1.55;;;;;;;12.43;100.00;101815.84;4996622;28;20055;-79
2022/10/08 09:20:17;;;;;;;0.40;0.40;;;;;;;12.24;100.00;101817.78;4994910;28;20062;-78
2022/10/08 09:22:44;;;;;;;0.40;0.40;;;;;;;12.18;100.00;101826.50;5022209;28;20033;-76
2022/10/08 09:25:21;;;;;;;0.47;0.47;;;;;;;12.24;100.00;101831.25;5013261;28;20033;-76
2022/10/08 09:27:49;;;;;;;0.50;0.50;;;;;;;12.65;100.00;101834.16;5023370;28;20128;-76
2022/10/08 09:30:34;;;;;;;0.80;0.80;;;;;;;14.21;100.00;101821.56;4997534;28;20037;-79
2022/10/08 09:33:28;;;;;;;0.45;0.45;;;;;;;16.67;96.69;101825.03;5014216;28;20026;-77
2022/10/08 09:35:54;;;;;;;0.60;0.60;;;;;;;16.94;92.03;101817.25;4999640;28;20262;-77
2022/10/08 09:38:28;;;;;;;0.80;0.80;;;;;;;19.09;83.12;101829.19;5002337;28;20161;-78
2022/10/08 09:41:04;;;;;;;0.70;0.70;;;;;;;19.99;77.67;101823.38;4984620;28;20087;-77
2022/10/08 09:43:32;;;;;;;0.73;0.73;;;;;;;21.26;75.28;101821.81;5013043;28;20036;-80
2022/10/08 09:46:04;;;;;;;0.70;0.70;;;;;;;22.08;74.72;101818.22;4983253;28;20365;-78
2022/10/08 09:48:30;;;;;;;0.60;0.60;;;;;;;22.51;72.44;101826.38;5006948;28;20028;-76
2022/10/08 09:51:15;;;;;;;0.40;0.40;;;;;;;20.87;75.23;101828.38;5003140;28;20029;-77
2022/10/08 09:53:44;;;;;;;0.40;0.40;;;;;;;19.05;86.53;101824.34;4997951;28;20045;-76
2022/10/08 09:56:11;;;;;;;0.57;0.57;;;;;;;18.15;91.68;101818.94;4996891;28;20033;-76
2022/10/08 09:58:50;;;;;;;0.43;0.43;;;;;;;18.06;94.88;101830.19;5008675;28;20460;-77
2022/10/08 10:01:17;;;;;;;0.40;0.40;;;;;;;17.18;97.55;101833.19;5005167;28;20030;-76
2022/10/08 10:03:54;;;;;;;0.45;0.45;;;;;;;16.14;99.88;101830.59;5039155;28;20025;-76
2022/10/08 10:06:35;;;;;;;0.40;0.40;;;;;;;15.43;100.00;101826.47;5027168;28;20025;-76
2022/10/08 10:09:10;;;;;;;0.40;0.40;;;;;;;14.88;100.00;101831.94;5007857;28;20088;-75
2022/10/08 10:11:38;;;;;;;0.60;0.60;;;;;;;15.25;100.00;101824.94;4991613;28;20033;-76
2022/10/08 10:14:20;;;;;;;0.52;0.52;;;;;;;16.21;100.00;101823.38;4995086;28;20037;-76
2022/10/08 10:16:48;;;;;;;0.60;0.60;;;;;;;16.28;100.00;101818.06;5012704;28;20034;-76
2022/10/08 10:19:17;;;;;;;0.40;0.40;;;;;;;16.11;100.00;101821.97;4988282;28;20053;-78
2022/10/08 10:21:49;;;;;;;0.77;0.77;;;;;;;16.31;100.00;101819.56;5009904;28;20037;-78
2022/10/08 10:24:52;;;;;;;11.52;1.42;;;;;;;17.97;100.00;101816.72;5010114;28;20034;-78
2022/10/08 10:27:38;;;;;;;0.50;0.50;;;;;;;17.66;92.70;101800.78;5005686;28;20052;-76
2022/10/08 10:30:14;;;;;;;4.53;1.00;;;;;;;18.45;93.52;101805.91;5016658;28;20034;-76
2022/10/08 10:33:10;;;;;;;1.00;1.00;;;;;;;19.96;84.00;101801.97;4978305;28;20041;-76
2022/10/08 10:35:44;;;;;;;4.25;1.40;;;;;;;21.82;75.84;101800.97;5003404;28;20045;-77
2022/10/08 10:38:15;;;;;;;3.50;1.20;;;;;;;20.84;77.87;101799.56;5007427;28;20026;-76
2022/10/08 10:41:02;;;;;;;2.88;1.45;;;;;;;20.33;78.74;101792.22;5011307;28;20034;-76
2022/10/08 10:43:32;;;;;;;6.10;1.35;;;;;;;22.12;74.12;101814.81;5016363;28;20030;-76
2022/10/08 10:46:25;;;;;;;7.43;1.48;;;;;;;23.56;68.56;101805.09;5000281;28;20440;-76
2022/10/08 10:48:53;;;;;;;5.88;1.80;;;;;;;24.12;66.05;101801.75;5016783;28;20037;-78
2022/10/08 10:52:08;;;;;;;5.55;2.30;;;;;;;24.63;65.89;101795.69;4993608;28;20033;-77
2022/10/08 10:55:03;;;;;;;9.88;1.80;;;;;;;22.68;75.31;101785.50;5005784;28;20244;-77
2022/10/08 10:57:49;;;;;;;6.07;1.33;;;;;;;21.79;77.43;101786.91;5011081;28;20136;-76
2022/10/08 11:01:06;;;;;;;8.05;1.92;;;;;;;20.02;82.71;101792.94;5012596;28;20121;-76
2022/10/08 11:03:35;;;;;;;11.52;1.70;;;;;;;18.94;87.88;101784.09;4991254;28;20136;-76
2022/10/08 11:06:36;;;;;;;3.70;1.40;;;;;;;18.51;89.33;101784.34;5013153;28;20038;-76
2022/10/08 11:09:14;;;;;;;7.30;1.40;;;;;;;18.10;92.62;101777.00;5008270;28;20045;-77
2022/10/08 11:11:44;;;;;;;7.05;1.17;;;;;;;17.25;94.90;101777.00;5010917;28;20034;-76
2022/10/08 11:14:20;;;;;;;8.23;1.92;;;;;;;19.03;87.56;101769.22;5014333;28;20050;-76
2022/10/08 11:17:07;;;;;;;9.10;1.73;;;;;;;19.73;82.02;101748.69;5000029;28;20041;-76
2022/10/08 11:19:38;;;;;;;7.15;1.83;;;;;;;20.38;82.61;101776.03;5024217;28;20045;-76
2022/10/08 11:22:16;;;;;;;9.60;2.17;;;;;;;19.38;84.33;101769.88;5004964;28;20029;-76
2022/10/08 11:24:58;;;;;;;5.47;1.73;;;;;;;18.56;90.87;101779.13;5010789;28;20472;-75
2022/10/08 11:27:51;;;;;;;5.65;1.33;;;;;;;18.06;91.68;101770.31;5022143;28;20045;-76
2022/10/08 11:30:32;;;;;;;9.68;1.50;;;;;;;17.96;92.25;101767.94;5009848;28;20061;-77
2022/10/08 11:32:58;;;;;;;5.97;1.40;;;;;;;17.74;94.76;101761.69;5021638;28;20546;-76
2022/10/08 11:35:32;;;;;;;4.43;1.40;;;;;;;17.55;95.12;101755.91;5013616;28;20033;-77
2022/10/08 11:38:14;;;;;;;14.35;2.00;;;;;;;17.65;97.00;101757.44;5002984;28;20034;-77
2022/10/08 11:40:48;;;;;;;7.20;1.95;;;;;;;18.01;96.03;101754.56;5009686;28;20042;-77
2022/10/08 11:43:46;;;;;;;9.45;2.17;;;;;;;18.51;93.97;101752.50;4992390;28;20037;-77